Weston, Colorado
Current Conditions -  °F | °C
As of 6:53 PM on Sunday 21 Dec 2014 (Local Time) from KRTN Reporting Station
Clear Clear  
Wind Chill: 34°   Ceiling: Unl
Heat Index: 39°   Visibility: 10mi
Dew Point: 20°   Wind: 7mph
Humidity: 46%   Direction: NA
Pressure: 29.66"   Gusts: NA
Location:  37.14°N, 104.85°W
Report Text: KRTN 220153Z AUTO VRB06KT 10SM CLR 04/M07 A2966 RMK AO2 SLP044 T00391067
Loading
Personal Weather Stations






























Interactive Weather Map New forecast layout! Learn more

10-Day Weather Forecast

Advertisements
Track Severe Weather on mobile